Strona główna
METAR-TAF:

METAR-TAF

Lotnisko :

Port lotniczy Kärdla

Kärdla, Estonia

Szerokość geograficzna: 58-59N, Długość geograficzna: 022-49E, wysokość: 5 m

Aktualna obserwacja pogody

Raport powstał 3 godziny i 56 minut temu, godzina 15:50 UTC
Wiatr 5 kt od południowy zachód
Temperatura 2°C
Wilgotność 80%
Ciśnienie 1031 hPa
Widzialność 10 km lub więcej
Zachmurzenie całkowite na wysokości 2100 ft

METAR: EEKA 201550Z 22005KT 9999 OVC021 02/M01 Q1031

czas: 21:46 (19:46 UTC)

Prognoza

Raport powstał 6 godziny i 46 minut temu, godzina 13:00 UTC
Prognoza ważna od 20 godzina 14 UTC do 20 godzina 20 UTC
Wiatr 2 kt z kierunków zmiennych
Widzialność 10 km lub więcej
Zachmurzenie całkowite na wysokości 2000 ft
Przejściowo
od 20 godzina 14 UTC do 20 godzina 20 UTC
Przerywane chmury na wysokości 1000 ft
Zachmurzenie całkowite na wysokości 2000 ft
Stopniowe zmiany
od 20 godzina 18 UTC do 20 godzina 20 UTC
Wiatr 12 kt od północ

TAF: EEKA 201300Z 2014/2020 VRB02KT 9999 OVC020 TEMPO 2014/2020 BKN010 OVC020 BECMG 2018/2020 36012KT

Obserwacja i prognoza pogody dla ponad 4000 lotnisk (raport METAR i TAF).

Dostępne stacje oznaczono żółtymi i czerwonymi punktami na mapie.

Najedź kursorem aby zobaczyć nazwę stacji.

Kliknij aby zobaczyć obserwacje i prognozy pogody.

Aby zmienić mapę: kliknij na zielony przycisk z czarnym krzyżykiem, aby powiększyć; na zielony przycisk z myślnikiem, aby pomniejszyć; na zielone strzałki, aby przejść do map sąsiednich.


METAR-TAF: